Time;durP1;ratioP1;P1;durP2;ratioP2;P2;SDS_P1;SDS_P2;PMS_P1;PMS_P2;Temp;Humidity;BMP_temperature;BMP_pressure;BME280_temperature;BME280_humidity;BME280_pressure;Samples;Min_cycle;Max_cycle;Signal;HPM_P1;HPM_P2
2023/03/31 00:01:14;;;;;;;;;9.00;7.00;;;;;;;;117156;1184;25384;-60
2023/03/31 00:03:42;;;;;;;;;9.67;7.67;;;;;;;;117065;1193;25696;-62
2023/03/31 00:06:16;;;;;;;;;7.33;6.33;;;;;;;;117190;1184;25286;-60
2023/03/31 00:08:50;;;;;;;;;9.33;8.00;;;;;;;;117198;1183;25621;-60
2023/03/31 00:11:20;;;;;;;;;7.00;6.00;;;;;;;;117068;1185;25368;-60
2023/03/31 00:13:49;;;;;;;;;10.00;7.00;;;;;;;;117075;1185;25678;-60
2023/03/31 00:16:18;;;;;;;;;12.00;7.00;;;;;;;;117203;1196;25094;-61
2023/03/31 00:18:49;;;;;;;;;10.50;7.50;;;;;;;;117088;1196;25718;-61
2023/03/31 00:21:24;;;;;;;;;10.00;7.00;;;;;;;;117330;1182;24835;-63
2023/03/31 00:24:01;;;;;;;;;6.50;6.50;;;;;;;;117306;1184;25530;-63
2023/03/31 00:26:30;;;;;;;;;9.00;7.00;;;;;;;;117259;1184;24905;-62
2023/03/31 00:28:59;;;;;;;;;11.00;6.50;;;;;;;;117227;1184;25346;-60
2023/03/31 00:31:28;;;;;;;;;5.00;5.00;;;;;;;;117350;1183;25551;-60
2023/03/31 00:33:57;;;;;;;;;9.00;6.50;;;;;;;;117160;1188;25455;-60
2023/03/31 00:36:28;;;;;;;;;8.00;6.50;;;;;;;;117362;1184;25772;-60
2023/03/31 00:38:59;;;;;;;;;6.50;5.50;;;;;;;;117347;1184;24775;-60
2023/03/31 00:41:28;;;;;;;;;7.00;5.00;;;;;;;;117333;1184;25651;-61
2023/03/31 00:44:23;;;;;;;;;7.00;6.50;;;;;;;;117301;1196;25720;-60
2023/03/31 00:47:05;;;;;;;;;11.00;7.00;;;;;;;;117282;1184;25542;-60
2023/03/31 00:49:41;;;;;;;;;7.50;6.50;;;;;;;;117185;1184;25117;-61
2023/03/31 00:52:17;;;;;;;;;9.00;7.00;;;;;;;;117293;1196;26433;-62
2023/03/31 00:54:49;;;;;;;;;11.50;5.50;;;;;;;;117303;1182;24921;-62
2023/03/31 00:57:17;;;;;;;;;10.00;6.00;;;;;;;;117327;1184;25145;-61
2023/03/31 00:59:49;;;;;;;;;6.67;5.00;;;;;;;;117150;1187;25023;-61
2023/03/31 01:02:19;;;;;;;;;6.67;6.67;;;;;;;;117325;1184;24945;-60
2023/03/31 01:04:56;;;;;;;;;7.00;6.50;;;;;;;;117145;1190;25149;-60
2023/03/31 01:07:32;;;;;;;;;7.50;7.00;;;;;;;;117332;1184;25177;-60
2023/03/31 01:10:03;;;;;;;;;4.50;4.50;;;;;;;;117260;1196;24948;-60
2023/03/31 01:12:33;;;;;;;;;8.00;6.00;;;;;;;;117308;1196;24729;-62
2023/03/31 01:15:03;;;;;;;;;10.00;8.00;;;;;;;;117327;1184;25138;-60
2023/03/31 01:17:33;;;;;;;;;12.00;5.50;;;;;;;;117333;1190;25204;-63
2023/03/31 01:20:11;;;;;;;;;10.50;8.50;;;;;;;;117118;1185;25716;-64
2023/03/31 01:22:58;;;;;;;;;5.00;5.00;;;;;;;;117324;1196;25924;-60
2023/03/31 01:25:49;;;;;;;;;9.67;7.00;;;;;;;;117317;1196;25485;-60
2023/03/31 01:28:26;;;;;;;;;;;;;;;;;;117343;1184;25236;-60
2023/03/31 01:31:13;;;;;;;;;6.50;6.50;;;;;;;;117320;1184;25991;-61
2023/03/31 01:34:14;;;;;;;;;6.00;5.50;;;;;;;;117312;1195;24918;-60
2023/03/31 01:37:07;;;;;;;;;7.50;7.00;;;;;;;;117159;1183;25476;-65
2023/03/31 01:40:13;;;;;;;;;7.33;5.00;;;;;;;;117171;1184;25290;-61
2023/03/31 01:43:06;;;;;;;;;10.00;8.00;;;;;;;;117060;1184;25275;-61
2023/03/31 01:45:44;;;;;;;;;8.50;5.50;;;;;;;;117303;1196;25406;-62
2023/03/31 01:48:17;;;;;;;;;9.00;6.00;;;;;;;;117297;1184;25289;-62
2023/03/31 01:51:01;;;;;;;;;8.00;6.00;;;;;;;;117211;1183;24757;-61
2023/03/31 01:53:33;;;;;;;;;6.00;6.00;;;;;;;;117253;1186;25475;-61
2023/03/31 01:56:11;;;;;;;;;6.00;6.00;;;;;;;;117213;1184;24906;-60
2023/03/31 01:58:49;;;;;;;;;5.50;4.50;;;;;;;;117331;1196;24742;-60
2023/03/31 02:01:24;;;;;;;;;7.00;6.00;;;;;;;;117301;1183;25688;-61
2023/03/31 02:04:12;;;;;;;;;6.00;4.00;;;;;;;;117274;1183;25249;-61
2023/03/31 02:06:45;;;;;;;;;7.67;6.67;;;;;;;;117071;1185;25619;-65
2023/03/31 02:09:20;;;;;;;;;5.00;4.00;;;;;;;;117265;1196;25667;-60
2023/03/31 02:11:50;;;;;;;;;7.00;5.50;;;;;;;;117304;1196;25150;-60
2023/03/31 02:14:23;;;;;;;;;6.00;6.00;;;;;;;;117085;1185;25273;-60
2023/03/31 02:16:57;;;;;;;;;6.00;5.00;;;;;;;;117265;1184;24831;-61
2023/03/31 02:19:39;;;;;;;;;4.50;4.50;;;;;;;;117159;1184;25673;-60
2023/03/31 02:22:08;;;;;;;;;6.00;6.00;;;;;;;;117104;1196;25317;-60
2023/03/31 02:24:39;;;;;;;;;10.00;6.00;;;;;;;;117265;1192;25161;-60
2023/03/31 02:27:24;;;;;;;;;6.00;6.00;;;;;;;;117278;1184;24716;-60
2023/03/31 02:29:53;;;;;;;;;8.00;4.00;;;;;;;;117296;1196;25009;-62
2023/03/31 02:32:34;;;;;;;;;5.00;5.00;;;;;;;;119072;1196;24779;-61
2023/03/31 02:35:05;;;;;;;;;7.50;6.00;;;;;;;;118950;1190;25697;-61
2023/03/31 02:37:33;;;;;;;;;6.50;4.50;;;;;;;;118975;1190;25412;-61
2023/03/31 02:40:09;;;;;;;;;7.00;4.67;;;;;;;;118908;1196;24950;-61
2023/03/31 02:42:41;;;;;;;;;7.00;7.00;;;;;;;;119087;1196;25628;-61
2023/03/31 02:45:34;;;;;;;;;4.00;4.00;;;;;;;;119006;1189;25226;-61
2023/03/31 02:48:04;;;;;;;;;5.25;5.25;;;;;;;;119065;1196;25376;-61
2023/03/31 02:50:43;;;;;;;;;7.50;6.00;;;;;;;;118913;1197;25317;-61
2023/03/31 02:53:26;;;;;;;;;5.00;3.00;;;;;;;;118962;1196;25094;-62
2023/03/31 02:56:34;;;;;;;;;9.00;5.00;;;;;;;;118883;1197;24952;-61
2023/03/31 02:59:18;;;;;;;;;4.00;4.00;;;;;;;;119070;1196;24963;-62
2023/03/31 03:01:52;;;;;;;;;3.50;3.50;;;;;;;;119090;1196;24867;-61
2023/03/31 03:04:24;;;;;;;;;6.67;5.67;;;;;;;;119032;1197;24849;-61
2023/03/31 03:07:02;;;;;;;;;5.00;4.00;;;;;;;;119179;1196;25341;-61
2023/03/31 03:09:53;;;;;;;;;6.00;4.00;;;;;;;;119086;1196;25018;-61
2023/03/31 03:12:54;;;;;;;;;8.00;4.00;;;;;;;;118904;1197;25280;-61
2023/03/31 03:15:40;;;;;;;;;5.00;4.00;;;;;;;;118973;1189;25700;-62
2023/03/31 03:18:08;;;;;;;;;5.00;4.50;;;;;;;;119056;1196;24827;-61
2023/03/31 03:20:37;;;;;;;;;3.50;3.50;;;;;;;;119314;1194;25448;-61
2023/03/31 03:23:06;;;;;;;;;5.00;5.00;;;;;;;;119357;1187;24718;-61
2023/03/31 03:25:34;;;;;;;;;5.00;5.00;;;;;;;;119301;1196;25375;-61
2023/03/31 03:28:02;;;;;;;;;5.00;4.00;;;;;;;;119331;1196;25301;-61
2023/03/31 03:30:30;;;;;;;;;5.00;5.00;;;;;;;;119326;1193;25484;-61
2023/03/31 03:32:59;;;;;;;;;4.00;4.00;;;;;;;;119307;1196;25421;-61
2023/03/31 03:35:27;;;;;;;;;7.00;7.00;;;;;;;;119316;1194;24762;-61
2023/03/31 03:37:55;;;;;;;;;6.50;5.50;;;;;;;;119079;1196;25214;-61
2023/03/31 03:40:24;;;;;;;;;10.00;6.00;;;;;;;;119302;1195;24800;-62
2023/03/31 03:42:52;;;;;;;;;3.67;3.67;;;;;;;;119305;1196;25231;-61
2023/03/31 03:45:21;;;;;;;;;3.50;3.50;;;;;;;;119314;1188;25218;-64
2023/03/31 03:47:49;;;;;;;;;5.00;5.00;;;;;;;;119203;1188;24801;-61
2023/03/31 03:50:17;;;;;;;;;6.00;4.00;;;;;;;;119330;1194;25651;-61
2023/03/31 03:52:45;;;;;;;;;4.00;3.50;;;;;;;;119339;1196;25138;-61
2023/03/31 03:55:13;;;;;;;;;5.00;5.00;;;;;;;;119335;1196;25267;-63
2023/03/31 03:57:42;;;;;;;;;6.00;4.00;;;;;;;;119336;1187;25432;-61
2023/03/31 04:00:11;;;;;;;;;5.00;4.00;;;;;;;;119328;1187;25540;-61
2023/03/31 04:02:39;;;;;;;;;4.00;3.00;;;;;;;;119342;1195;25361;-61
2023/03/31 04:05:08;;;;;;;;;7.00;4.00;;;;;;;;119093;1196;24779;-61
2023/03/31 04:07:36;;;;;;;;;7.50;6.50;;;;;;;;119378;1196;24947;-61
2023/03/31 04:10:05;;;;;;;;;7.00;6.00;;;;;;;;119329;1196;24830;-61
2023/03/31 04:12:34;;;;;;;;;4.00;4.00;;;;;;;;119347;1196;25309;-61
2023/03/31 04:15:03;;;;;;;;;4.00;4.00;;;;;;;;119337;1196;25251;-61
2023/03/31 04:17:31;;;;;;;;;3.00;3.00;;;;;;;;119322;1196;24740;-61
2023/03/31 04:20:08;;;;;;;;;1.50;1.50;;;;;;;;119110;1189;25512;-62
2023/03/31 04:22:40;;;;;;;;;5.50;3.50;;;;;;;;119101;1189;24881;-61
2023/03/31 04:25:16;;;;;;;;;4.33;4.33;;;;;;;;119036;1194;25324;-61
2023/03/31 04:27:49;;;;;;;;;7.00;5.50;;;;;;;;119067;1190;25624;-61
2023/03/31 04:30:24;;;;;;;;;8.00;5.00;;;;;;;;118926;1193;26518;-63
2023/03/31 04:32:55;;;;;;;;;4.00;4.00;;;;;;;;119035;1197;25261;-61
2023/03/31 04:35:27;;;;;;;;;4.00;4.00;;;;;;;;119267;1196;25393;-61
2023/03/31 04:38:01;;;;;;;;;4.25;4.00;;;;;;;;119330;1188;24829;-62
2023/03/31 04:40:29;;;;;;;;;7.00;4.00;;;;;;;;119323;1193;25752;-59
2023/03/31 04:42:57;;;;;;;;;6.00;4.67;;;;;;;;119333;1196;25529;-59
2023/03/31 04:45:25;;;;;;;;;4.00;4.00;;;;;;;;119342;1196;24729;-60
2023/03/31 04:47:54;;;;;;;;;4.00;4.00;;;;;;;;119307;1188;25189;-59
2023/03/31 04:50:22;;;;;;;;;5.00;4.00;;;;;;;;119067;1196;25463;-59
2023/03/31 04:52:50;;;;;;;;;2.00;1.50;;;;;;;;119371;1196;25300;-59
2023/03/31 04:55:18;;;;;;;;;7.00;3.50;;;;;;;;119335;1196;25597;-59
2023/03/31 04:57:47;;;;;;;;;7.00;4.00;;;;;;;;119337;1196;25677;-59
2023/03/31 05:00:15;;;;;;;;;5.00;5.00;;;;;;;;119344;1183;25557;-60
2023/03/31 05:02:43;;;;;;;;;7.33;3.67;;;;;;;;119322;1196;25202;-64
2023/03/31 05:05:12;;;;;;;;;5.00;3.00;;;;;;;;119372;1196;25420;-61
2023/03/31 05:07:40;;;;;;;;;7.33;6.67;;;;;;;;119308;1188;25208;-59
2023/03/31 05:10:09;;;;;;;;;13.00;6.67;;;;;;;;119040;1196;25456;-59
2023/03/31 05:12:38;;;;;;;;;14.00;7.67;;;;;;;;119352;1188;25637;-60
2023/03/31 05:15:07;;;;;;;;;9.00;9.00;;;;;;;;119315;1196;24761;-59
2023/03/31 05:17:35;;;;;;;;;12.00;10.00;;;;;;;;119065;1189;24795;-60
2023/03/31 05:20:05;;;;;;;;;10.00;7.00;;;;;;;;119235;1192;24875;-59
2023/03/31 05:22:38;;;;;;;;;12.50;8.00;;;;;;;;119301;1188;25140;-60
2023/03/31 05:25:07;;;;;;;;;16.00;12.00;;;;;;;;119096;1189;25260;-59
2023/03/31 05:27:36;;;;;;;;;11.00;10.00;;;;;;;;119063;1196;24779;-60
2023/03/31 05:30:06;;;;;;;;;15.67;11.67;;;;;;;;118968;1196;25074;-60
2023/03/31 05:32:35;;;;;;;;;18.00;10.00;;;;;;;;119105;1196;25641;-60
2023/03/31 05:35:03;;;;;;;;;11.00;5.00;;;;;;;;119316;1188;25000;-60
2023/03/31 05:37:32;;;;;;;;;19.00;10.67;;;;;;;;119341;1184;25125;-60
2023/03/31 05:40:00;;;;;;;;;9.00;8.00;;;;;;;;119278;1196;24916;-60
2023/03/31 05:42:28;;;;;;;;;9.00;5.00;;;;;;;;119293;1188;25045;-60
2023/03/31 05:44:56;;;;;;;;;12.50;8.50;;;;;;;;119282;1183;25473;-60
2023/03/31 05:47:24;;;;;;;;;17.00;8.67;;;;;;;;119307;1196;25034;-59
2023/03/31 05:49:53;;;;;;;;;14.50;10.00;;;;;;;;119318;1196;25472;-60
2023/03/31 05:52:21;;;;;;;;;13.00;10.00;;;;;;;;118939;1186;25222;-60
2023/03/31 05:54:49;;;;;;;;;11.00;7.33;;;;;;;;119351;1188;25145;-60
2023/03/31 05:57:18;;;;;;;;;9.00;7.00;;;;;;;;119256;1192;24683;-60
2023/03/31 05:59:46;;;;;;;;;15.00;8.00;;;;;;;;119322;1196;25383;-60
2023/03/31 06:02:14;;;;;;;;;14.00;10.00;;;;;;;;119337;1184;25697;-60
2023/03/31 06:04:42;;;;;;;;;18.00;11.50;;;;;;;;119338;1196;25048;-60
2023/03/31 06:07:12;;;;;;;;;9.00;7.00;;;;;;;;119360;1192;25021;-60
2023/03/31 06:09:40;;;;;;;;;11.00;6.00;;;;;;;;119032;1196;24949;-60
2023/03/31 06:12:08;;;;;;;;;12.00;9.00;;;;;;;;119335;1188;24941;-60
2023/03/31 06:14:36;;;;;;;;;12.00;8.00;;;;;;;;119261;1192;25399;-60
2023/03/31 06:17:05;;;;;;;;;8.00;4.00;;;;;;;;119250;1196;25367;-60
2023/03/31 06:19:34;;;;;;;;;14.33;7.33;;;;;;;;119325;1192;24703;-60
2023/03/31 06:22:03;;;;;;;;;6.00;6.00;;;;;;;;119314;1192;25459;-60
2023/03/31 06:24:31;;;;;;;;;10.00;5.00;;;;;;;;119301;1192;24990;-60
2023/03/31 06:27:00;;;;;;;;;18.00;8.00;;;;;;;;119097;1185;24879;-60
2023/03/31 06:29:28;;;;;;;;;10.00;7.00;;;;;;;;119309;1192;25501;-60
2023/03/31 06:31:56;;;;;;;;;9.50;8.50;;;;;;;;119091;1189;25447;-60
2023/03/31 06:34:25;;;;;;;;;11.50;7.50;;;;;;;;119365;1192;24876;-60
2023/03/31 06:36:53;;;;;;;;;9.00;7.00;;;;;;;;119345;1196;25009;-63
2023/03/31 06:39:21;;;;;;;;;9.33;8.00;;;;;;;;119322;1188;25238;-63
2023/03/31 06:41:49;;;;;;;;;12.67;8.00;;;;;;;;119301;1196;25259;-62
2023/03/31 06:44:21;;;;;;;;;6.50;6.50;;;;;;;;119323;1196;25474;-62
2023/03/31 06:46:50;;;;;;;;;12.00;9.00;;;;;;;;119335;1196;25266;-62
2023/03/31 06:49:18;;;;;;;;;12.00;8.00;;;;;;;;119337;1188;25397;-62
2023/03/31 06:51:46;;;;;;;;;17.00;7.50;;;;;;;;119294;1184;25347;-64
2023/03/31 06:54:14;;;;;;;;;12.67;9.33;;;;;;;;119051;1193;25646;-66
2023/03/31 06:56:43;;;;;;;;;8.00;6.50;;;;;;;;119277;1192;25662;-59
2023/03/31 06:59:11;;;;;;;;;11.50;8.50;;;;;;;;119076;1185;25573;-65
2023/03/31 07:01:41;;;;;;;;;13.00;5.00;;;;;;;;119259;1196;25473;-65
2023/03/31 07:04:09;;;;;;;;;9.50;5.50;;;;;;;;119376;1188;24870;-65
2023/03/31 07:06:38;;;;;;;;;12.00;9.00;;;;;;;;119291;1188;24757;-64
2023/03/31 07:09:06;;;;;;;;;11.50;7.25;;;;;;;;119335;1196;24841;-64
2023/03/31 07:11:34;;;;;;;;;11.00;8.00;;;;;;;;119294;1196;25551;-64
2023/03/31 07:14:02;;;;;;;;;12.00;6.00;;;;;;;;119364;1187;25013;-64
2023/03/31 07:16:30;;;;;;;;;9.00;7.00;;;;;;;;119114;1188;25451;-64
2023/03/31 07:19:03;;;;;;;;;9.50;7.50;;;;;;;;119061;1184;25657;-64
2023/03/31 07:21:31;;;;;;;;;7.00;7.00;;;;;;;;119043;1197;25311;-64
2023/03/31 07:23:59;;;;;;;;;;;;;;;;;;118874;1197;25343;-64
2023/03/31 07:26:27;;;;;;;;;9.50;7.00;;;;;;;;119044;1188;25232;-64
2023/03/31 07:28:56;;;;;;;;;12.50;7.00;;;;;;;;119039;1189;24848;-64
2023/03/31 07:31:25;;;;;;;;;4.00;4.00;;;;;;;;119039;1193;24859;-64
2023/03/31 07:33:53;;;;;;;;;9.67;7.00;;;;;;;;119052;1196;25184;-64
2023/03/31 07:36:21;;;;;;;;;12.50;5.50;;;;;;;;118906;1188;25302;-64
2023/03/31 07:38:50;;;;;;;;;14.50;8.00;;;;;;;;119042;1197;25467;-64
2023/03/31 07:41:19;;;;;;;;;14.00;8.00;;;;;;;;119042;1197;24944;-64
2023/03/31 07:43:49;;;;;;;;;8.00;7.00;;;;;;;;118874;1197;24851;-65
2023/03/31 07:46:22;;;;;;;;;11.00;7.00;;;;;;;;118883;1197;24942;-65
2023/03/31 07:48:52;;;;;;;;;9.50;7.00;;;;;;;;118872;1197;25073;-64
2023/03/31 07:51:22;;;;;;;;;6.00;5.00;;;;;;;;118893;1197;24788;-64
2023/03/31 07:53:51;;;;;;;;;9.00;7.00;;;;;;;;118894;1197;25967;-64
2023/03/31 07:56:22;;;;;;;;;4.50;4.50;;;;;;;;119035;1197;24778;-65
2023/03/31 07:58:51;;;;;;;;;8.33;6.67;;;;;;;;119003;1197;25083;-64
2023/03/31 08:01:24;;;;;;;;;3.50;3.50;;;;;;;;119028;1189;25507;-64
2023/03/31 08:03:54;;;;;;;;;8.00;6.00;;;;;;;;118908;1197;25001;-65
2023/03/31 08:06:25;;;;;;;;;10.50;6.00;;;;;;;;119050;1197;25266;-65
2023/03/31 08:08:53;;;;;;;;;6.50;4.50;;;;;;;;118892;1197;24856;-64
2023/03/31 08:11:23;;;;;;;;;7.00;4.00;;;;;;;;119024;1197;25200;-64
2023/03/31 08:13:51;;;;;;;;;8.67;5.67;;;;;;;;119023;1197;25493;-65
2023/03/31 08:16:19;;;;;;;;;9.50;7.00;;;;;;;;119063;1189;25651;-64
2023/03/31 08:18:48;;;;;;;;;9.50;7.50;;;;;;;;119362;1196;25023;-64
2023/03/31 08:21:16;;;;;;;;;7.00;5.00;;;;;;;;119099;1196;25476;-64
2023/03/31 08:23:44;;;;;;;;;11.00;7.50;;;;;;;;119086;1189;24793;-64
2023/03/31 08:26:18;;;;;;;;;6.00;6.00;;;;;;;;119339;1196;26551;-64
2023/03/31 08:28:49;;;;;;;;;8.50;7.00;;;;;;;;119098;1196;25445;-64
2023/03/31 08:31:22;;;;;;;;;10.33;6.33;;;;;;;;119343;1196;25003;-64
2023/03/31 08:33:54;;;;;;;;;11.00;8.50;;;;;;;;119103;1196;24992;-64
2023/03/31 08:36:24;;;;;;;;;10.00;6.33;;;;;;;;119335;1196;24965;-64
2023/03/31 08:38:53;;;;;;;;;9.00;5.75;;;;;;;;119075;1196;25363;-64
2023/03/31 08:41:46;;;;;;;;;9.25;7.50;;;;;;;;118939;1196;25040;-64
2023/03/31 08:44:27;;;;;;;;;6.00;6.00;;;;;;;;119315;1196;25001;-64
2023/03/31 08:46:56;;;;;;;;;9.00;6.00;;;;;;;;119345;1196;24933;-64
2023/03/31 08:49:26;;;;;;;;;8.75;7.75;;;;;;;;119080;1196;25953;-64
2023/03/31 08:52:01;;;;;;;;;11.50;7.00;;;;;;;;118939;1196;25678;-64
2023/03/31 08:54:51;;;;;;;;;7.00;5.50;;;;;;;;119089;1189;24854;-64
2023/03/31 08:57:48;;;;;;;;;6.00;6.00;;;;;;;;119070;1196;25061;-64
2023/03/31 09:00:18;;;;;;;;;6.00;6.00;;;;;;;;119115;1188;25228;-64
2023/03/31 09:03:02;;;;;;;;;5.67;4.00;;;;;;;;119074;1196;25569;-64
2023/03/31 09:05:57;;;;;;;;;8.00;5.33;;;;;;;;119091;1196;25452;-64
2023/03/31 09:08:32;;;;;;;;;13.00;8.00;;;;;;;;119357;1188;25794;-64
2023/03/31 09:11:14;;;;;;;;;6.67;5.67;;;;;;;;119086;1188;25550;-64
2023/03/31 09:14:09;;;;;;;;;10.00;6.00;;;;;;;;119094;1188;25318;-64
2023/03/31 09:16:45;;;;;;;;;6.00;6.00;;;;;;;;119104;1188;24872;-64
2023/03/31 09:19:19;;;;;;;;;9.50;6.00;;;;;;;;118965;1196;25390;-64
2023/03/31 09:21:50;;;;;;;;;6.50;6.50;;;;;;;;118946;1196;25350;-64
2023/03/31 09:24:23;;;;;;;;;5.75;4.50;;;;;;;;119109;1188;24768;-64
2023/03/31 09:27:00;;;;;;;;;4.00;4.00;;;;;;;;118957;1196;25493;-64
2023/03/31 09:29:37;;;;;;;;;8.50;5.50;;;;;;;;119103;1196;24977;-64
2023/03/31 09:32:13;;;;;;;;;6.67;4.00;;;;;;;;119346;1188;25465;-64
2023/03/31 09:34:42;;;;;;;;;7.00;5.00;;;;;;;;119364;1196;25199;-64
2023/03/31 09:37:11;;;;;;;;;9.50;6.50;;;;;;;;118931;1196;25498;-64
2023/03/31 09:39:39;;;;;;;;;9.00;5.00;;;;;;;;119083;1196;25510;-64
2023/03/31 09:42:11;;;;;;;;;6.00;5.33;;;;;;;;119069;1196;25653;-64
2023/03/31 09:44:42;;;;;;;;;7.50;5.50;;;;;;;;119081;1196;24688;-65
2023/03/31 09:47:19;;;;;;;;;5.00;5.00;;;;;;;;119352;1188;25068;-64
2023/03/31 09:53:46;;;;;;;;;9.00;5.00;;;;;;;;116236;1196;23624;-61
2023/03/31 09:56:33;;;;;;;;;6.50;6.50;;;;;;;;117407;1183;25217;-62
2023/03/31 09:59:02;;;;;;;;;7.00;6.00;;;;;;;;117387;1194;25218;-62
2023/03/31 10:01:31;;;;;;;;;6.00;4.00;;;;;;;;117366;1184;25006;-62
2023/03/31 10:04:02;;;;;;;;;6.00;4.00;;;;;;;;117409;1184;24865;-62
2023/03/31 10:06:31;;;;;;;;;6.33;3.33;;;;;;;;117408;1195;25624;-62
2023/03/31 10:09:02;;;;;;;;;7.67;5.00;;;;;;;;117430;1192;25634;-62
2023/03/31 10:11:31;;;;;;;;;6.33;5.67;;;;;;;;117148;1183;25319;-62
2023/03/31 10:14:23;;;;;;;;;5.33;3.33;;;;;;;;117180;1186;25160;-61
2023/03/31 10:16:57;;;;;;;;;7.25;5.50;;;;;;;;117369;1184;25356;-61
2023/03/31 10:19:28;;;;;;;;;4.50;4.50;;;;;;;;117417;1183;25229;-61
2023/03/31 10:21:59;;;;;;;;;5.75;4.50;;;;;;;;117428;1190;25358;-61
2023/03/31 10:24:44;;;;;;;;;4.50;4.25;;;;;;;;117416;1183;25501;-62
2023/03/31 10:27:26;;;;;;;;;7.75;5.75;;;;;;;;117399;1183;25037;-61
2023/03/31 10:30:00;;;;;;;;;7.50;7.50;;;;;;;;117393;1195;25297;-61
2023/03/31 10:32:30;;;;;;;;;7.67;5.67;;;;;;;;117412;1195;25681;-61
2023/03/31 10:35:22;;;;;;;;;7.00;5.33;;;;;;;;117388;1196;25137;-61
2023/03/31 10:37:55;;;;;;;;;7.75;5.75;;;;;;;;117420;1191;25578;-61
2023/03/31 10:40:28;;;;;;;;;7.33;4.33;;;;;;;;117418;1184;25136;-61
2023/03/31 10:43:16;;;;;;;;;5.00;5.00;;;;;;;;117421;1187;24953;-61
2023/03/31 10:45:49;;;;;;;;;6.00;5.50;;;;;;;;117411;1187;25260;-62
2023/03/31 10:48:30;;;;;;;;;3.75;3.00;;;;;;;;117416;1191;25056;-61
2023/03/31 10:51:05;;;;;;;;;6.00;5.67;;;;;;;;117398;1187;25525;-62
2023/03/31 10:53:45;;;;;;;;;6.50;5.00;;;;;;;;117408;1184;24885;-61
2023/03/31 10:56:42;;;;;;;;;7.50;6.00;;;;;;;;117425;1182;24964;-61
2023/03/31 10:59:22;;;;;;;;;4.00;4.00;;;;;;;;117406;1183;24741;-61
2023/03/31 11:02:12;;;;;;;;;7.50;5.50;;;;;;;;117408;1184;24763;-61
2023/03/31 11:05:03;;;;;;;;;9.00;6.67;;;;;;;;117419;1184;25106;-62
2023/03/31 11:08:00;;;;;;;;;7.75;4.75;;;;;;;;117406;1196;25574;-62
2023/03/31 11:10:37;;;;;;;;;8.00;5.00;;;;;;;;117161;1183;25340;-63
2023/03/31 11:13:28;;;;;;;;;9.33;5.67;;;;;;;;117397;1184;25544;-62
2023/03/31 11:16:24;;;;;;;;;8.50;7.00;;;;;;;;117398;1183;24761;-64
2023/03/31 11:19:00;;;;;;;;;6.67;6.00;;;;;;;;117499;1184;25816;-66
2023/03/31 11:21:41;;;;;;;;;7.67;6.33;;;;;;;;117418;1183;25211;-63
2023/03/31 11:24:35;;;;;;;;;7.00;4.67;;;;;;;;117134;1183;25097;-64
2023/03/31 11:27:18;;;;;;;;;6.50;5.75;;;;;;;;117401;1183;25100;-60
2023/03/31 11:30:12;;;;;;;;;6.00;6.00;;;;;;;;117432;1187;25504;-60
2023/03/31 11:33:13;;;;;;;;;6.67;5.00;;;;;;;;117423;1183;25600;-61
2023/03/31 11:35:53;;;;;;;;;10.33;9.00;;;;;;;;117258;1187;25506;-61
2023/03/31 11:38:21;;;;;;;;;7.50;5.75;;;;;;;;117407;1196;25179;-61
2023/03/31 11:41:10;;;;;;;;;6.50;5.50;;;;;;;;117394;1194;25952;-61
2023/03/31 11:43:48;;;;;;;;;8.33;7.33;;;;;;;;117454;1187;24976;-61
2023/03/31 11:46:27;;;;;;;;;8.25;5.50;;;;;;;;117198;1196;25343;-61
2023/03/31 11:49:02;;;;;;;;;6.67;6.33;;;;;;;;117140;1195;25376;-61
2023/03/31 11:51:40;;;;;;;;;7.00;4.00;;;;;;;;117140;1184;24796;-61
2023/03/31 11:54:19;;;;;;;;;5.67;5.67;;;;;;;;117430;1182;25476;-62
2023/03/31 11:56:48;;;;;;;;;6.33;6.00;;;;;;;;117449;1183;25447;-62
2023/03/31 11:59:19;;;;;;;;;8.33;6.33;;;;;;;;117083;1196;24671;-62
2023/03/31 12:02:00;;;;;;;;;6.00;5.00;;;;;;;;117135;1184;25240;-62
2023/03/31 12:04:38;;;;;;;;;5.67;5.33;;;;;;;;117394;1184;25056;-62
2023/03/31 12:07:22;;;;;;;;;10.50;7.00;;;;;;;;117150;1184;25181;-61
2023/03/31 12:09:53;;;;;;;;;8.00;6.50;;;;;;;;117400;1196;25098;-62
2023/03/31 12:12:26;;;;;;;;;7.00;5.67;;;;;;;;117142;1183;24766;-62
2023/03/31 12:15:14;;;;;;;;;8.50;6.00;;;;;;;;117394;1183;25067;-61
2023/03/31 12:17:46;;;;;;;;;8.00;5.50;;;;;;;;117362;1196;24839;-61
2023/03/31 12:20:36;;;;;;;;;8.00;7.00;;;;;;;;117154;1183;24887;-62
2023/03/31 12:23:12;;;;;;;;;7.00;7.00;;;;;;;;117391;1187;25683;-62
2023/03/31 12:26:06;;;;;;;;;4.00;4.00;;;;;;;;117406;1196;24685;-62
2023/03/31 12:28:37;;;;;;;;;8.00;6.50;;;;;;;;117417;1184;25578;-62
2023/03/31 12:31:10;;;;;;;;;6.75;6.00;;;;;;;;117142;1184;25601;-62
2023/03/31 12:33:55;;;;;;;;;7.50;5.50;;;;;;;;117134;1184;25449;-62
2023/03/31 12:36:45;;;;;;;;;5.25;5.00;;;;;;;;117446;1184;24967;-62
2023/03/31 12:39:38;;;;;;;;;2.75;2.00;;;;;;;;117438;1184;25536;-62
2023/03/31 12:42:34;;;;;;;;;7.50;5.75;;;;;;;;117409;1184;24859;-62
2023/03/31 12:45:12;;;;;;;;;7.00;5.50;;;;;;;;117404;1196;24982;-62
2023/03/31 12:47:43;;;;;;;;;8.50;5.00;;;;;;;;117364;1183;25506;-62
2023/03/31 12:50:25;;;;;;;;;5.33;4.00;;;;;;;;117413;1184;24835;-65
2023/03/31 12:53:04;;;;;;;;;5.67;5.00;;;;;;;;117431;1184;25167;-63
2023/03/31 12:55:37;;;;;;;;;4.00;4.00;;;;;;;;117382;1183;25595;-64
2023/03/31 12:58:23;;;;;;;;;6.75;6.00;;;;;;;;117401;1183;25502;-63
2023/03/31 13:01:13;;;;;;;;;5.00;5.00;;;;;;;;117136;1194;25567;-61
2023/03/31 13:03:49;;;;;;;;;7.33;4.00;;;;;;;;117387;1184;24896;-61
2023/03/31 13:06:24;;;;;;;;;9.00;5.33;;;;;;;;118080;1177;25304;-61
2023/03/31 13:09:07;;;;;;;;;8.00;5.67;;;;;;;;118010;1177;24691;-60
2023/03/31 13:11:43;;;;;;;;;4.00;4.00;;;;;;;;118053;1190;25269;-60
2023/03/31 13:14:23;;;;;;;;;4.67;4.67;;;;;;;;117916;1184;25669;-60
2023/03/31 13:16:53;;;;;;;;;5.75;5.75;;;;;;;;117869;1180;25584;-60
2023/03/31 13:19:31;;;;;;;;;3.00;3.00;;;;;;;;117917;1190;25697;-59
2023/03/31 13:22:02;;;;;;;;;9.00;6.00;;;;;;;;118002;1187;25342;-59
2023/03/31 13:24:32;;;;;;;;;7.00;6.00;;;;;;;;117930;1179;26124;-60
2023/03/31 13:27:38;;;;;;;;;3.75;3.75;;;;;;;;117848;1190;24918;-60
2023/03/31 13:30:40;;;;;;;;;8.00;5.00;;;;;;;;117873;1180;25583;-60
2023/03/31 13:33:33;;;;;;;;;4.67;4.33;;;;;;;;117905;1180;24854;-62
2023/03/31 13:36:31;;;;;;;;;6.00;5.25;;;;;;;;117898;1177;25437;-62
2023/03/31 13:39:37;;;;;;;;;7.00;4.00;;;;;;;;117960;1177;25350;-63
2023/03/31 13:42:43;;;;;;;;;4.75;3.00;;;;;;;;117987;1178;25115;-61
2023/03/31 13:45:37;;;;;;;;;7.00;6.00;;;;;;;;117997;1190;25301;-62
2023/03/31 13:48:36;;;;;;;;;6.50;6.00;;;;;;;;117922;1183;25602;-63
2023/03/31 13:51:13;;;;;;;;;6.25;4.75;;;;;;;;117926;1179;24729;-62
2023/03/31 13:54:00;;;;;;;;;6.75;5.00;;;;;;;;118020;1177;25247;-61
2023/03/31 13:57:10;;;;;;;;;9.00;6.67;;;;;;;;118012;1177;24797;-61
2023/03/31 14:00:17;;;;;;;;;5.00;5.00;;;;;;;;117992;1187;24692;-61
2023/03/31 14:03:07;;;;;;;;;11.00;6.00;;;;;;;;117919;1179;25426;-59
2023/03/31 14:05:40;;;;;;;;;6.25;4.75;;;;;;;;118010;1187;25260;-62
2023/03/31 14:08:23;;;;;;;;;6.00;5.00;;;;;;;;117921;1180;24765;-59
2023/03/31 14:10:52;;;;;;;;;8.67;8.67;;;;;;;;117931;1177;25555;-62
2023/03/31 14:13:24;;;;;;;;;3.25;3.25;;;;;;;;117983;1190;25154;-60
2023/03/31 14:15:56;;;;;;;;;7.00;5.00;;;;;;;;118044;1183;24933;-60
2023/03/31 14:18:30;;;;;;;;;5.00;5.00;;;;;;;;117953;1177;25140;-60
2023/03/31 14:21:20;;;;;;;;;5.00;3.75;;;;;;;;117950;1177;25295;-61
2023/03/31 14:23:59;;;;;;;;;6.50;4.75;;;;;;;;117940;1190;25104;-61
2023/03/31 14:26:52;;;;;;;;;5.50;4.00;;;;;;;;118014;1177;25278;-61
2023/03/31 14:29:23;;;;;;;;;3.50;3.50;;;;;;;;117996;1177;25347;-61
2023/03/31 14:32:30;;;;;;;;;4.00;2.00;;;;;;;;118020;1177;25321;-60
2023/03/31 14:35:03;;;;;;;;;5.67;5.00;;;;;;;;117993;1177;24837;-60
2023/03/31 14:37:33;;;;;;;;;6.25;5.25;;;;;;;;118014;1190;24926;-60
2023/03/31 14:40:02;;;;;;;;;3.00;3.00;;;;;;;;117952;1180;24775;-60
2023/03/31 14:42:39;;;;;;;;;5.00;5.00;;;;;;;;117911;1178;25404;-60
2023/03/31 14:45:36;;;;;;;;;5.00;5.00;;;;;;;;118080;1183;24763;-61
2023/03/31 14:48:13;;;;;;;;;7.50;6.50;;;;;;;;117877;1177;25553;-62
2023/03/31 14:50:44;;;;;;;;;7.00;3.75;;;;;;;;118098;1177;24772;-61
2023/03/31 14:53:15;;;;;;;;;4.33;4.33;;;;;;;;117904;1178;25575;-61
2023/03/31 14:55:45;;;;;;;;;5.50;5.50;;;;;;;;118115;1177;24671;-61
2023/03/31 14:58:30;;;;;;;;;5.50;4.00;;;;;;;;118129;1190;24866;-61
2023/03/31 15:01:00;;;;;;;;;4.25;4.25;;;;;;;;118092;1190;25370;-60
2023/03/31 15:03:29;;;;;;;;;6.00;4.00;;;;;;;;118081;1177;25512;-61
2023/03/31 15:05:59;;;;;;;;;4.00;4.00;;;;;;;;118109;1178;25459;-61
2023/03/31 15:08:29;;;;;;;;;3.00;3.00;;;;;;;;118117;1187;25071;-61
2023/03/31 15:11:01;;;;;;;;;3.00;3.00;;;;;;;;117961;1183;24840;-61
2023/03/31 15:13:42;;;;;;;;;5.33;5.00;;;;;;;;118122;1177;25439;-61
2023/03/31 15:16:20;;;;;;;;;5.75;5.00;;;;;;;;118112;1182;24741;-61
2023/03/31 15:18:52;;;;;;;;;6.00;5.33;;;;;;;;118122;1177;25434;-61
2023/03/31 15:21:24;;;;;;;;;7.67;5.00;;;;;;;;117996;1180;24854;-62